»·PEaware :: N413C KMCC-KRBL

N413C :: KMCC-KRBL

FLIGHT INFORMATION

Flight Status: Arrived
Operator: Privately registered:
United States
More flights under this callsign
Pilot: Alec D. (17934)
Aircraft: PIPER PA-34 SENECA
(PA34)
More flights by this aircraft type
Origin: KMCC McClellan
United States
Destination: KRBL Red Bluff Mun
United States
More flights between these airports :: More routes between these airports
Route: SAC V23 RBL
File this flight plan on PilotEdge
Remarks:
Altitude:
(Current/Filed)
0ft
Speed:
(Current/Filed)
0kts
Departed: 30-Mar-18 10:23 AM
Arrived: 30-Mar-18 11:14 AM
Distance/Time
Traveled:
98nm/0:50
Distance/Time
To Go:
Arrived

Flight Plot

Page will automatically refresh every two minutes.

Flight plan parsing failed; only flown route is shown


Map Options




Map Legend


Flown Route
Filed Route
Departure Airport
Arrival Airport
Navaid (VOR, NDB)
Fix

Horizontal Profiles

Position Reports

Time Latitude Longitude Heading Altitude Ground
Speed
30-Mar-18 10:02 38.659905 -121.395750 90 78ft 0kts
30-Mar-18 10:03 38.659905 -121.395748 90 78ft 0kts
30-Mar-18 10:04 38.659905 -121.395745 90 78ft 0kts
30-Mar-18 10:05 38.659905 -121.395743 90 78ft 0kts
30-Mar-18 10:06 38.659905 -121.395740 90 78ft 0kts
30-Mar-18 10:07 38.659943 -121.395923 253 78ft 1kts
30-Mar-18 10:08 38.661184 -121.398796 359 78ft 15kts
30-Mar-18 10:09 38.665441 -121.398817 0 78ft 17kts
30-Mar-18 10:10 38.670877 -121.398798 1 78ft 22kts
30-Mar-18 10:11 38.676391 -121.398798 0 78ft 20kts
30-Mar-18 10:12 38.679300 -121.398223 319 78ft 0kts
30-Mar-18 10:13 38.679310 -121.398235 316 78ft 0kts
30-Mar-18 10:14 38.679333 -121.398265 309 78ft 0kts
30-Mar-18 10:15 38.679336 -121.398270 309 78ft 0kts
30-Mar-18 10:16 38.679345 -121.398285 311 78ft 0kts
30-Mar-18 10:17 38.679356 -121.398300 313 78ft 0kts
30-Mar-18 10:18 38.679358 -121.398302 313 78ft 0kts
30-Mar-18 10:19 38.681193 -121.398790 358 78ft 13kts
30-Mar-18 10:20 38.681806 -121.399454 262 78ft 0kts
30-Mar-18 10:21 38.681797 -121.399579 265 78ft 6kts
30-Mar-18 10:22 38.674102 -121.400582 178 78ft 91kts
30-Mar-18 10:23 38.643439 -121.403613 190 1086ft 122kts
30-Mar-18 10:24 38.614881 -121.426203 216 1904ft 117kts
30-Mar-18 10:25 38.587976 -121.448970 210 2548ft 117kts
30-Mar-18 10:26 38.559202 -121.469114 209 3178ft 118kts
30-Mar-18 10:27 38.530821 -121.490056 209 3820ft 117kts
30-Mar-18 10:28 38.502205 -121.510145 209 4431ft 117kts
30-Mar-18 10:29 38.478391 -121.534935 281 4937ft 115kts
30-Mar-18 10:30 38.501700 -121.558695 322 5462ft 108kts
30-Mar-18 10:31 38.525847 -121.581156 340 5889ft 110kts
30-Mar-18 10:32 38.558487 -121.590594 345 5988ft 131kts
30-Mar-18 10:33 38.594222 -121.603244 345 5969ft 134kts
30-Mar-18 10:34 38.631740 -121.610076 349 5968ft 142kts
30-Mar-18 10:35 38.664439 -121.620736 344 5956ft 147kts
30-Mar-18 10:36 38.704126 -121.634650 344 5979ft 149kts
30-Mar-18 10:37 38.744885 -121.647067 343 5981ft 151kts
30-Mar-18 10:38 38.792426 -121.663280 343 5977ft 151kts
30-Mar-18 10:39 38.833810 -121.675935 343 5980ft 154kts
30-Mar-18 10:40 38.868474 -121.687190 343 5980ft 153kts
30-Mar-18 10:41 38.909176 -121.701410 344 5978ft 150kts
30-Mar-18 10:42 38.949680 -121.714566 345 5978ft 150kts
30-Mar-18 10:43 38.990790 -121.726162 347 5977ft 152kts
30-Mar-18 10:44 39.033035 -121.739155 343 5981ft 159kts
30-Mar-18 10:45 39.076176 -121.755117 344 5981ft 162kts
30-Mar-18 10:46 39.119449 -121.771551 346 5980ft 159kts
30-Mar-18 10:47 39.161763 -121.784595 349 5977ft 153kts
30-Mar-18 10:48 39.203377 -121.795763 349 5979ft 152kts
30-Mar-18 10:49 39.245233 -121.808169 348 5988ft 156kts
30-Mar-18 10:50 39.288046 -121.822025 347 5982ft 160kts
30-Mar-18 10:51 39.331082 -121.838144 341 5981ft 161kts
30-Mar-18 10:52 39.373304 -121.858504 341 5980ft 161kts
30-Mar-18 10:53 39.415520 -121.878323 340 5987ft 163kts
30-Mar-18 10:54 39.458636 -121.897982 337 5986ft 163kts
30-Mar-18 10:55 39.500159 -121.919288 333 5987ft 157kts
30-Mar-18 10:56 39.538784 -121.943237 332 5983ft 151kts
30-Mar-18 10:57 39.576954 -121.965954 336 5975ft 151kts
30-Mar-18 10:58 39.616152 -121.985188 338 5976ft 150kts
30-Mar-18 10:59 39.655534 -122.003540 337 5863ft 150kts
30-Mar-18 11:00 39.695626 -122.024024 336 5355ft 156kts
30-Mar-18 11:01 39.735824 -122.046009 336 4853ft 156kts
30-Mar-18 11:02 39.776048 -122.067370 337 4349ft 156kts
30-Mar-18 11:03 39.816636 -122.087841 337 3855ft 155kts
30-Mar-18 11:04 39.856851 -122.107889 337 3367ft 154kts
30-Mar-18 11:05 39.896216 -122.127613 337 2987ft 149kts
30-Mar-18 11:06 39.933668 -122.146531 337 2967ft 144kts
30-Mar-18 11:07 39.971147 -122.165534 337 2968ft 144kts
30-Mar-18 11:08 40.008970 -122.184709 337 2841ft 148kts
30-Mar-18 11:09 40.047358 -122.204312 336 2279ft 143kts
30-Mar-18 11:10 40.080779 -122.228223 331 1522ft 129kts
30-Mar-18 11:11 40.108651 -122.241313 352 1073ft 81kts
30-Mar-18 11:12 40.131743 -122.247259 352 650ft 79kts
30-Mar-18 11:13 40.149030 -122.251776 11 352ft 9kts
30-Mar-18 11:14 40.150248 -122.250365 348 352ft 17kts
30-Mar-18 11:15 40.154757 -122.251408 49 352ft 7kts
30-Mar-18 11:16 40.154945 -122.251018 59 352ft 0kts
30-Mar-18 11:17 40.154945 -122.251018 59 352ft 0kts
30-Mar-18 11:18 40.154945 -122.251018 59 352ft 0kts
30-Mar-18 11:19 40.154945 -122.251018 59 352ft 0kts
30-Mar-18 11:20 40.154945 -122.251018 59 352ft 0kts
30-Mar-18 11:21 40.154945 -122.251018 59 352ft 0kts
30-Mar-18 11:22 40.154945 -122.251018 59 352ft 0kts

Navigation Log

Ident Type
Flight plan parsing failed, navigation log unavailable